createdAt,value
2023-03-19T00:00:30.674Z,7.90
2023-03-19T00:02:57.828Z,7.80
2023-03-19T00:05:24.921Z,7.80
2023-03-19T00:07:52.013Z,7.80
2023-03-19T00:10:19.182Z,7.80
2023-03-19T00:12:46.603Z,7.70
2023-03-19T00:15:14.800Z,7.60
2023-03-19T00:17:44.965Z,7.50
2023-03-19T00:20:15.070Z,7.40
2023-03-19T00:22:42.494Z,7.40
2023-03-19T00:25:10.235Z,7.50
2023-03-19T00:27:38.472Z,7.50
2023-03-19T00:30:07.372Z,7.40
2023-03-19T00:32:35.892Z,7.50
2023-03-19T00:35:04.162Z,7.40
2023-03-19T00:37:31.361Z,7.40
2023-03-19T00:39:58.704Z,7.30
2023-03-19T00:42:25.734Z,7.30
2023-03-19T00:44:52.885Z,7.20
2023-03-19T00:47:19.903Z,7.20
2023-03-19T00:49:47.497Z,7.30
2023-03-19T00:52:14.691Z,7.20
2023-03-19T00:54:42.222Z,7.10
2023-03-19T00:57:09.618Z,7.00
2023-03-19T00:59:37.002Z,7.00
2023-03-19T01:02:04.692Z,7.00
2023-03-19T01:04:32.212Z,7.00
2023-03-19T01:09:26.832Z,6.90
2023-03-19T01:11:53.987Z,6.80
2023-03-19T01:14:21.362Z,6.80
2023-03-19T01:16:48.857Z,6.80
2023-03-19T01:19:16.563Z,6.80
2023-03-19T01:21:46.512Z,6.80
2023-03-19T01:24:14.084Z,6.80
2023-03-19T01:26:41.275Z,6.80
2023-03-19T01:29:08.872Z,6.80
2023-03-19T01:31:36.586Z,6.90
2023-03-19T01:34:04.290Z,6.90
2023-03-19T01:36:31.545Z,6.90
2023-03-19T01:38:58.698Z,7.00
2023-03-19T01:41:25.872Z,7.00
2023-03-19T01:43:52.857Z,7.00
2023-03-19T01:46:37.041Z,7.00
2023-03-19T01:49:08.012Z,6.90
2023-03-19T01:51:45.931Z,6.80
2023-03-19T01:54:17.120Z,6.80
2023-03-19T01:56:46.269Z,6.80
2023-03-19T01:59:21.429Z,6.80
2023-03-19T02:01:55.270Z,6.80
2023-03-19T02:04:24.825Z,6.80
2023-03-19T02:06:52.031Z,6.80
2023-03-19T02:09:19.566Z,6.80
2023-03-19T02:11:46.658Z,6.70
2023-03-19T02:14:13.991Z,6.70
2023-03-19T02:16:41.255Z,6.80
2023-03-19T02:19:13.732Z,6.70
2023-03-19T02:21:40.895Z,6.70
2023-03-19T02:24:29.464Z,6.70
2023-03-19T02:26:57.745Z,6.70
2023-03-19T02:29:24.775Z,6.80
2023-03-19T02:31:51.682Z,6.90
2023-03-19T02:34:21.897Z,6.90
2023-03-19T02:36:57.862Z,7.00
2023-03-19T02:39:28.062Z,6.90
2023-03-19T02:41:55.982Z,6.90
2023-03-19T02:44:23.145Z,6.90
2023-03-19T02:46:50.447Z,6.90
2023-03-19T02:49:17.832Z,7.00
2023-03-19T02:51:45.095Z,7.00
2023-03-19T02:54:12.024Z,7.10
2023-03-19T02:56:39.001Z,7.20
2023-03-19T02:59:05.992Z,7.20
2023-03-19T03:01:32.917Z,7.20
2023-03-19T03:03:59.981Z,7.20
2023-03-19T03:06:26.971Z,7.30
2023-03-19T03:08:54.601Z,7.30
2023-03-19T03:11:21.631Z,7.20
2023-03-19T03:13:48.997Z,7.20
2023-03-19T03:16:16.165Z,7.30
2023-03-19T03:18:43.372Z,7.30
2023-03-19T03:21:10.668Z,7.30
2023-03-19T03:23:37.899Z,7.30
2023-03-19T03:26:04.945Z,7.30
2023-03-19T03:28:31.938Z,7.30
2023-03-19T03:31:00.318Z,7.30
2023-03-19T03:33:27.298Z,7.30
2023-03-19T03:35:54.575Z,7.30
2023-03-19T03:38:22.112Z,7.30
2023-03-19T03:40:53.220Z,7.30
2023-03-19T03:43:21.543Z,7.30
2023-03-19T03:45:49.210Z,7.30
2023-03-19T03:48:17.041Z,7.40
2023-03-19T03:50:44.118Z,7.40
2023-03-19T03:53:12.655Z,7.40
2023-03-19T03:55:40.312Z,7.40
2023-03-19T03:58:07.364Z,7.40
2023-03-19T04:00:35.200Z,7.40
2023-03-19T04:03:03.228Z,7.50
2023-03-19T04:05:30.195Z,7.60
2023-03-19T04:07:57.340Z,7.60
2023-03-19T04:10:24.644Z,7.70
2023-03-19T04:12:51.607Z,7.80
2023-03-19T04:15:19.170Z,7.80
2023-03-19T04:17:46.506Z,7.90
2023-03-19T04:20:14.547Z,7.90
2023-03-19T04:22:41.781Z,8.00
2023-03-19T04:25:09.179Z,8.00
2023-03-19T04:27:36.513Z,8.00
2023-03-19T04:30:04.403Z,8.10
2023-03-19T04:32:31.550Z,8.10
2023-03-19T04:34:58.729Z,8.20
2023-03-19T04:37:25.739Z,8.30
2023-03-19T04:39:54.551Z,8.40
2023-03-19T04:42:21.816Z,8.40
2023-03-19T04:44:48.786Z,8.40
2023-03-19T04:47:16.001Z,8.40
2023-03-19T04:49:42.945Z,8.30
2023-03-19T04:52:09.896Z,8.40
2023-03-19T04:54:36.936Z,8.40
2023-03-19T04:57:04.076Z,8.40
2023-03-19T04:59:31.392Z,8.40
2023-03-19T05:01:58.996Z,8.40
2023-03-19T05:04:27.423Z,8.40
2023-03-19T05:06:54.590Z,8.30
2023-03-19T05:09:21.647Z,8.30
2023-03-19T05:11:48.879Z,8.30
2023-03-19T05:14:16.002Z,8.30
2023-03-19T05:16:43.047Z,8.30
2023-03-19T05:19:10.509Z,8.20
2023-03-19T05:21:38.219Z,8.20
2023-03-19T05:24:05.456Z,8.20
2023-03-19T05:26:32.991Z,8.20
2023-03-19T05:29:00.226Z,8.20
2023-03-19T05:31:27.267Z,8.20
2023-03-19T05:33:54.350Z,8.10
2023-03-19T05:36:21.448Z,8.10
2023-03-19T05:38:48.425Z,8.20
2023-03-19T05:41:15.446Z,8.20
2023-03-19T05:43:43.079Z,8.10
2023-03-19T05:46:10.191Z,8.10
2023-03-19T05:48:37.883Z,8.20
2023-03-19T05:51:05.683Z,8.20
2023-03-19T05:53:32.578Z,8.20
2023-03-19T05:55:59.560Z,8.20
2023-03-19T05:58:26.675Z,8.20
2023-03-19T06:00:56.676Z,8.20
2023-03-19T06:03:24.244Z,8.30
2023-03-19T06:05:52.232Z,8.30
2023-03-19T06:08:34.990Z,8.40
2023-03-19T06:11:04.153Z,8.40
2023-03-19T06:13:31.375Z,8.50
2023-03-19T06:15:58.530Z,8.50
2023-03-19T06:18:25.677Z,8.60
2023-03-19T06:20:53.085Z,8.60
2023-03-19T06:23:20.682Z,8.60
2023-03-19T06:25:47.831Z,8.60
2023-03-19T06:28:14.958Z,8.70
2023-03-19T06:30:41.977Z,8.70
2023-03-19T06:33:09.439Z,8.70
2023-03-19T06:35:36.687Z,8.60
2023-03-19T06:38:04.122Z,8.70
2023-03-19T06:40:31.095Z,8.70
2023-03-19T06:42:58.353Z,8.70
2023-03-19T06:45:25.769Z,8.60
2023-03-19T06:47:53.637Z,8.70
2023-03-19T06:50:21.716Z,8.70
2023-03-19T06:52:50.772Z,8.70
2023-03-19T06:55:18.014Z,8.60
2023-03-19T06:57:49.549Z,8.70
2023-03-19T07:00:19.731Z,8.70
2023-03-19T07:02:47.385Z,8.70
2023-03-19T07:05:14.714Z,8.70
2023-03-19T07:07:41.822Z,8.70
2023-03-19T07:10:10.064Z,8.80
2023-03-19T07:12:37.084Z,8.80
2023-03-19T07:15:33.211Z,8.80
2023-03-19T07:18:00.491Z,8.80
2023-03-19T07:20:27.830Z,8.80
2023-03-19T07:22:54.994Z,8.70
2023-03-19T07:25:22.309Z,8.70
2023-03-19T07:27:49.355Z,8.60
2023-03-19T07:30:16.640Z,8.70
2023-03-19T07:32:44.058Z,8.70
2023-03-19T07:35:11.555Z,8.70
2023-03-19T07:37:38.859Z,8.70
2023-03-19T07:40:07.521Z,8.70
2023-03-19T07:42:36.902Z,8.70
2023-03-19T07:45:04.902Z,8.70
2023-03-19T07:47:32.764Z,8.70
2023-03-19T07:50:00.244Z,8.80
2023-03-19T07:52:27.848Z,8.90
2023-03-19T07:54:54.896Z,8.90
2023-03-19T07:57:21.933Z,9.00
2023-03-19T07:59:49.201Z,9.00
2023-03-19T08:02:19.284Z,9.10
2023-03-19T08:04:48.028Z,9.20
2023-03-19T08:07:16.080Z,9.30
2023-03-19T08:09:43.046Z,9.30
2023-03-19T08:12:12.228Z,9.40
2023-03-19T08:14:39.473Z,9.40
2023-03-19T08:17:06.774Z,9.50
2023-03-19T08:19:33.807Z,9.60
2023-03-19T08:22:00.887Z,9.60
2023-03-19T08:24:27.880Z,9.60
2023-03-19T08:26:54.971Z,9.70
2023-03-19T08:29:22.151Z,9.70
2023-03-19T08:31:49.127Z,9.80
2023-03-19T08:34:16.442Z,9.90
2023-03-19T08:36:43.478Z,10.00
2023-03-19T08:39:10.569Z,9.90
2023-03-19T08:41:37.585Z,9.90
2023-03-19T08:44:04.633Z,9.90
2023-03-19T08:46:31.804Z,10.00
2023-03-19T08:48:59.003Z,10.00
2023-03-19T08:51:26.501Z,10.00
2023-03-19T08:53:53.583Z,10.00
2023-03-19T08:56:20.592Z,10.20
2023-03-19T08:58:47.531Z,10.30
2023-03-19T09:01:15.635Z,10.50
2023-03-19T09:03:45.188Z,10.60
2023-03-19T09:06:12.953Z,10.80
2023-03-19T09:08:40.288Z,10.90
2023-03-19T09:11:07.736Z,11.00
2023-03-19T09:13:34.915Z,11.10
2023-03-19T09:16:02.089Z,11.10
2023-03-19T09:18:29.349Z,11.20
2023-03-19T09:20:56.542Z,11.10
2023-03-19T09:23:23.898Z,11.10
2023-03-19T09:25:51.335Z,11.10
2023-03-19T09:28:18.518Z,11.30
2023-03-19T09:30:50.085Z,11.50
2023-03-19T09:33:18.605Z,11.60
2023-03-19T09:35:51.200Z,11.70
2023-03-19T09:38:18.905Z,11.70
2023-03-19T09:41:04.951Z,11.70
2023-03-19T09:43:41.010Z,11.70
2023-03-19T09:46:16.363Z,11.70
2023-03-19T09:49:08.191Z,11.70
2023-03-19T09:52:04.843Z,11.70
2023-03-19T09:54:37.055Z,11.90
2023-03-19T09:57:04.433Z,12.20
2023-03-19T09:59:32.826Z,12.40
2023-03-19T10:02:22.640Z,12.40
2023-03-19T10:04:52.490Z,12.60
2023-03-19T10:07:40.754Z,13.00
2023-03-19T10:10:48.664Z,13.20
2023-03-19T10:13:39.763Z,13.40
2023-03-19T10:16:18.746Z,13.40
2023-03-19T10:18:49.909Z,13.40
2023-03-19T10:21:26.456Z,13.60
2023-03-19T10:24:27.827Z,13.70
2023-03-19T10:27:00.796Z,13.70
2023-03-19T10:29:28.476Z,13.90
2023-03-19T10:32:07.697Z,14.00
2023-03-19T10:34:37.894Z,14.30
2023-03-19T10:37:12.482Z,14.50
2023-03-19T10:39:42.637Z,14.60
2023-03-19T10:42:18.746Z,14.90
2023-03-19T10:45:12.525Z,14.80
2023-03-19T10:47:41.243Z,14.90
2023-03-19T10:50:19.394Z,15.00
2023-03-19T10:52:51.813Z,14.90
2023-03-19T10:55:25.447Z,14.80
2023-03-19T10:58:07.404Z,14.90
2023-03-19T11:00:35.702Z,15.00
2023-03-19T11:03:04.947Z,15.10
2023-03-19T11:05:34.582Z,15.10
2023-03-19T11:08:05.628Z,15.30
2023-03-19T11:10:36.096Z,15.70
2023-03-19T11:13:24.407Z,15.80
2023-03-19T11:15:53.906Z,16.10
2023-03-19T11:18:28.374Z,16.30
2023-03-19T11:21:21.936Z,16.30
2023-03-19T11:23:53.955Z,16.40
2023-03-19T11:26:21.823Z,16.30
2023-03-19T11:28:52.480Z,16.30
2023-03-19T11:31:34.208Z,16.40
2023-03-19T11:34:34.030Z,16.00
2023-03-19T11:37:20.087Z,15.90
2023-03-19T11:40:16.533Z,16.00
2023-03-19T11:43:07.994Z,15.80
2023-03-19T11:46:06.445Z,15.60
2023-03-19T11:48:51.622Z,16.20
2023-03-19T11:51:36.414Z,16.70
2023-03-19T11:54:11.581Z,16.80
2023-03-19T11:57:00.012Z,17.10
2023-03-19T11:59:39.233Z,17.20
2023-03-19T12:02:24.662Z,17.10
2023-03-19T12:05:22.974Z,17.20
2023-03-19T12:08:10.321Z,17.40
2023-03-19T12:10:49.509Z,17.50
2023-03-19T12:13:29.007Z,17.90
2023-03-19T12:16:30.552Z,17.90
2023-03-19T12:19:28.706Z,17.60
2023-03-19T12:22:17.950Z,16.90
2023-03-19T12:24:53.953Z,16.70
2023-03-19T12:27:34.584Z,16.60
2023-03-19T12:30:24.443Z,16.70
2023-03-19T12:33:03.720Z,16.80
2023-03-19T12:35:37.689Z,16.80
2023-03-19T12:38:24.943Z,16.90
2023-03-19T12:41:00.240Z,17.00
2023-03-19T12:43:57.640Z,16.90
2023-03-19T12:46:30.726Z,16.80
2023-03-19T12:49:06.700Z,17.00
2023-03-19T12:51:39.387Z,17.20
2023-03-19T12:54:25.900Z,17.10
2023-03-19T12:57:02.005Z,17.00
2023-03-19T12:59:36.751Z,16.90
2023-03-19T13:02:18.061Z,17.10
2023-03-19T13:04:56.009Z,17.50
2023-03-19T13:07:36.315Z,17.60
2023-03-19T13:10:13.720Z,17.70
2023-03-19T13:12:41.976Z,17.60
2023-03-19T13:15:24.228Z,17.40
2023-03-19T13:18:09.240Z,17.20
2023-03-19T13:21:07.843Z,17.20
2023-03-19T13:23:47.288Z,17.30
2023-03-19T13:26:14.974Z,17.30
2023-03-19T13:29:00.260Z,17.10
2023-03-19T13:31:28.471Z,16.70
2023-03-19T13:34:03.282Z,16.60
2023-03-19T13:36:31.832Z,16.70
2023-03-19T13:39:01.370Z,17.00
2023-03-19T13:41:39.214Z,17.00
2023-03-19T13:44:30.965Z,17.10
2023-03-19T13:47:03.433Z,17.20
2023-03-19T13:49:36.920Z,17.40
2023-03-19T13:52:15.861Z,17.90
2023-03-19T13:54:46.141Z,18.10
2023-03-19T13:57:17.178Z,18.30
2023-03-19T13:59:47.873Z,18.50
2023-03-19T14:02:26.667Z,18.60
2023-03-19T14:04:56.853Z,18.50
2023-03-19T14:07:31.043Z,18.20
2023-03-19T14:09:58.438Z,17.80
2023-03-19T14:12:32.801Z,17.30
2023-03-19T14:15:09.475Z,17.10
2023-03-19T14:17:48.613Z,16.80
2023-03-19T14:20:17.324Z,16.60
2023-03-19T14:22:45.140Z,16.60
2023-03-19T14:25:21.854Z,16.60
2023-03-19T14:27:51.163Z,16.80
2023-03-19T14:30:31.980Z,17.00
2023-03-19T14:33:04.478Z,16.80
2023-03-19T14:35:37.071Z,16.60
2023-03-19T14:38:11.779Z,16.20
2023-03-19T14:40:47.615Z,16.10
2023-03-19T14:43:24.025Z,16.00
2023-03-19T14:46:05.213Z,16.00
2023-03-19T14:49:03.127Z,15.90
2023-03-19T14:52:05.409Z,15.90
2023-03-19T14:54:44.168Z,15.70
2023-03-19T14:57:20.070Z,15.70
2023-03-19T14:59:50.329Z,15.50
2023-03-19T15:02:42.300Z,15.40
2023-03-19T15:05:16.718Z,15.40
2023-03-19T15:07:49.740Z,15.40
2023-03-19T15:10:23.512Z,15.30
2023-03-19T15:13:17.378Z,15.30
2023-03-19T15:16:07.319Z,15.20
2023-03-19T15:18:37.019Z,15.10
2023-03-19T15:21:05.616Z,15.10
2023-03-19T15:23:33.570Z,15.20
2023-03-19T15:26:03.397Z,15.20
2023-03-19T15:28:45.843Z,15.30
2023-03-19T15:31:30.305Z,15.10
2023-03-19T15:33:59.027Z,14.90
2023-03-19T15:36:31.785Z,14.70
2023-03-19T15:39:05.357Z,14.50
2023-03-19T15:41:36.130Z,14.50
2023-03-19T15:44:10.564Z,14.30
2023-03-19T15:46:41.488Z,14.10
2023-03-19T15:49:34.282Z,14.00
2023-03-19T15:52:05.478Z,13.90
2023-03-19T15:54:33.314Z,13.80
2023-03-19T15:57:00.537Z,13.70
2023-03-19T15:59:32.843Z,13.60
2023-03-19T16:02:13.818Z,13.60
2023-03-19T16:05:14.190Z,13.50
2023-03-19T16:07:39.907Z,13.40
2023-03-19T16:10:47.534Z,13.40
2023-03-19T16:13:39.826Z,13.10
2023-03-19T16:16:12.829Z,12.50
2023-03-19T16:18:51.618Z,12.10
2023-03-19T16:21:36.533Z,11.60
2023-03-19T16:24:37.746Z,11.20
2023-03-19T16:27:08.020Z,10.80
2023-03-19T16:29:39.261Z,10.60
2023-03-19T16:32:10.253Z,10.30
2023-03-19T16:34:50.780Z,10.10
2023-03-19T16:37:38.044Z,10.10
2023-03-19T16:40:14.259Z,9.90
2023-03-19T16:42:52.639Z,9.90
2023-03-19T16:45:25.454Z,9.90
2023-03-19T16:47:57.999Z,9.90
2023-03-19T16:50:32.046Z,9.90
2023-03-19T16:53:01.294Z,9.90
2023-03-19T16:55:34.810Z,9.80
2023-03-19T16:58:12.496Z,9.70
2023-03-19T17:00:39.575Z,9.70
2023-03-19T17:03:32.974Z,9.70
2023-03-19T17:06:00.084Z,9.70
2023-03-19T17:08:27.023Z,9.70
2023-03-19T17:10:55.183Z,9.70
2023-03-19T17:13:28.695Z,9.70
2023-03-19T17:16:02.898Z,9.70
2023-03-19T17:18:38.826Z,9.70
2023-03-19T17:21:11.561Z,9.70
2023-03-19T17:23:39.480Z,9.80
2023-03-19T17:26:16.410Z,9.80
2023-03-19T17:28:44.102Z,9.80
2023-03-19T17:31:29.278Z,9.90
2023-03-19T17:34:03.352Z,9.80
2023-03-19T17:36:31.315Z,9.80
2023-03-19T17:38:58.957Z,9.70
2023-03-19T17:41:26.181Z,9.80
2023-03-19T17:43:53.487Z,9.80
2023-03-19T17:46:27.544Z,9.80
2023-03-19T17:48:56.087Z,9.80
2023-03-19T17:51:26.340Z,9.70
2023-03-19T17:53:56.488Z,9.70
2023-03-19T17:56:26.161Z,9.70
2023-03-19T17:58:53.979Z,9.70
2023-03-19T18:01:30.990Z,9.70
2023-03-19T18:03:59.223Z,9.50
2023-03-19T18:06:32.300Z,9.50
2023-03-19T18:08:59.371Z,9.50
2023-03-19T18:11:26.645Z,9.50
2023-03-19T18:13:53.869Z,9.50
2023-03-19T18:16:29.112Z,9.40
2023-03-19T18:19:02.001Z,9.40
2023-03-19T18:21:30.045Z,9.40
2023-03-19T18:23:57.867Z,9.40
2023-03-19T18:26:26.348Z,9.40
2023-03-19T18:28:53.650Z,9.40
2023-03-19T18:31:24.648Z,9.30
2023-03-19T18:33:56.811Z,9.30
2023-03-19T18:36:27.322Z,9.20
2023-03-19T18:38:55.717Z,9.10
2023-03-19T18:41:24.650Z,8.90
2023-03-19T18:43:52.321Z,8.80
2023-03-19T18:46:30.912Z,8.80
2023-03-19T18:49:05.558Z,8.70
2023-03-19T18:51:32.870Z,8.60
2023-03-19T18:54:00.308Z,8.40
2023-03-19T18:56:31.652Z,8.30
2023-03-19T18:58:59.987Z,8.20
2023-03-19T19:01:28.675Z,8.20
2023-03-19T19:03:56.220Z,8.20
2023-03-19T19:06:45.882Z,8.10
2023-03-19T19:09:14.095Z,8.00
2023-03-19T19:11:44.438Z,7.90
2023-03-19T19:14:23.595Z,8.00
2023-03-19T19:16:53.020Z,8.00
2023-03-19T19:19:23.920Z,8.00
2023-03-19T19:21:52.418Z,8.00
2023-03-19T19:24:19.890Z,7.90
2023-03-19T19:26:51.195Z,7.90
2023-03-19T19:29:28.587Z,7.90
2023-03-19T19:31:57.461Z,7.80
2023-03-19T19:34:24.975Z,7.60
2023-03-19T19:36:56.243Z,7.60
2023-03-19T19:39:24.065Z,7.50
2023-03-19T19:41:55.107Z,7.50
2023-03-19T19:44:23.320Z,7.50
2023-03-19T19:46:53.859Z,7.50
2023-03-19T19:49:21.862Z,7.60
2023-03-19T19:51:49.108Z,7.50
2023-03-19T19:54:16.556Z,7.50
2023-03-19T19:56:44.582Z,7.30
2023-03-19T19:59:15.561Z,7.20
2023-03-19T20:01:43.553Z,7.10
2023-03-19T20:04:14.955Z,7.10
2023-03-19T20:06:42.404Z,6.90
2023-03-19T20:09:09.791Z,6.90
2023-03-19T20:11:37.163Z,6.90
2023-03-19T20:14:04.421Z,6.90
2023-03-19T20:16:31.938Z,6.80
2023-03-19T20:18:58.969Z,6.70
2023-03-19T20:21:26.398Z,6.70
2023-03-19T20:23:55.643Z,6.80
2023-03-19T20:26:25.179Z,6.80
2023-03-19T20:28:52.990Z,6.70
2023-03-19T20:31:31.442Z,6.70
2023-03-19T20:33:59.153Z,6.80
2023-03-19T20:36:27.082Z,6.80
2023-03-19T20:38:54.527Z,6.80
2023-03-19T20:41:24.705Z,6.80
2023-03-19T20:43:53.603Z,6.80
2023-03-19T20:46:23.415Z,6.80
2023-03-19T20:48:50.971Z,6.70
2023-03-19T20:51:25.255Z,6.70
2023-03-19T20:53:53.109Z,6.80
2023-03-19T20:56:25.047Z,6.80
2023-03-19T20:58:52.887Z,6.80
2023-03-19T21:01:20.341Z,6.70
2023-03-19T21:03:47.753Z,6.70
2023-03-19T21:06:24.086Z,6.80
2023-03-19T21:08:58.962Z,6.70
2023-03-19T21:11:45.070Z,6.80
2023-03-19T21:14:19.208Z,6.70
2023-03-19T21:16:46.615Z,6.90
2023-03-19T21:19:14.014Z,7.00
2023-03-19T21:21:43.035Z,7.10
2023-03-19T21:24:17.784Z,7.10
2023-03-19T21:26:46.700Z,7.20
2023-03-19T21:29:27.309Z,7.20
2023-03-19T21:31:56.816Z,7.20
2023-03-19T21:34:24.444Z,7.10
2023-03-19T21:36:51.690Z,7.20
2023-03-19T21:39:19.130Z,7.20
2023-03-19T21:41:46.999Z,7.20
2023-03-19T21:44:18.765Z,7.20
2023-03-19T21:46:48.473Z,7.30
2023-03-19T21:49:16.489Z,7.30
2023-03-19T21:51:47.334Z,7.30
2023-03-19T21:54:15.959Z,7.30
2023-03-19T21:56:45.235Z,7.30
2023-03-19T21:59:18.920Z,7.30
2023-03-19T22:01:46.852Z,7.40
2023-03-19T22:04:14.445Z,7.40
2023-03-19T22:06:43.234Z,7.40
2023-03-19T22:09:10.754Z,7.50
2023-03-19T22:11:40.030Z,7.50
2023-03-19T22:14:26.954Z,7.50
2023-03-19T22:16:55.596Z,7.50
2023-03-19T22:19:23.958Z,7.50
2023-03-19T22:21:51.058Z,7.50
2023-03-19T22:24:18.305Z,7.50
2023-03-19T22:26:47.565Z,7.60
2023-03-19T22:29:20.400Z,7.60
2023-03-19T22:31:52.191Z,7.60
2023-03-19T22:34:22.661Z,7.60
2023-03-19T22:36:50.301Z,7.70
2023-03-19T22:39:17.709Z,7.70
2023-03-19T22:41:48.143Z,7.70
2023-03-19T22:44:35.834Z,7.70
2023-03-19T22:47:03.097Z,7.70
2023-03-19T22:49:31.655Z,7.70
2023-03-19T22:51:58.715Z,7.60
2023-03-19T22:54:26.158Z,7.60
2023-03-19T22:56:53.262Z,7.60
2023-03-19T22:59:20.492Z,7.60
2023-03-19T23:01:48.734Z,7.70
2023-03-19T23:04:20.569Z,7.70
2023-03-19T23:06:48.374Z,7.70
2023-03-19T23:09:22.445Z,7.70
2023-03-19T23:11:50.017Z,7.80
2023-03-19T23:14:28.425Z,7.80
2023-03-19T23:17:02.318Z,7.80
2023-03-19T23:19:32.294Z,7.70
2023-03-19T23:22:01.486Z,7.70
2023-03-19T23:24:30.789Z,7.70
2023-03-19T23:26:59.545Z,7.80
2023-03-19T23:29:39.862Z,7.80
2023-03-19T23:32:08.279Z,7.70
2023-03-19T23:34:49.695Z,7.70
2023-03-19T23:37:24.592Z,7.80
2023-03-19T23:39:52.108Z,7.70
2023-03-19T23:42:30.638Z,7.80
2023-03-19T23:45:01.554Z,7.80
2023-03-19T23:47:29.814Z,7.90
2023-03-19T23:49:57.425Z,7.90
2023-03-19T23:52:24.611Z,7.80
2023-03-19T23:54:52.684Z,7.90
2023-03-19T23:57:22.058Z,7.80
2023-03-19T23:59:52.073Z,7.70
